createdAt,value
2022-09-07T00:01:57.343Z,8.05
2022-09-07T00:04:46.095Z,8.77
2022-09-07T00:07:28.352Z,9.45
2022-09-07T00:10:17.002Z,8.35
2022-09-07T00:13:07.025Z,9.43
2022-09-07T00:15:49.376Z,8.98
2022-09-07T00:18:40.284Z,8.68
2022-09-07T00:21:31.076Z,8.85
2022-09-07T00:24:13.780Z,8.75
2022-09-07T00:27:06.427Z,8.30
2022-09-07T00:29:49.211Z,9.27
2022-09-07T00:32:38.687Z,9.70
2022-09-07T00:35:22.179Z,8.73
2022-09-07T00:38:10.228Z,9.55
2022-09-07T00:40:52.743Z,9.65
2022-09-07T00:43:46.450Z,8.68
2022-09-07T00:46:42.819Z,9.90
2022-09-07T00:49:36.752Z,9.57
2022-09-07T00:52:22.117Z,9.45
2022-09-07T00:55:16.743Z,9.82
2022-09-07T00:58:06.753Z,10.90
2022-09-07T01:00:52.006Z,9.93
2022-09-07T01:03:46.715Z,11.32
2022-09-07T01:06:37.036Z,10.75
2022-09-07T01:09:32.709Z,11.00
2022-09-07T01:12:15.202Z,11.02
2022-09-07T01:15:04.014Z,10.32
2022-09-07T01:18:11.071Z,11.02
2022-09-07T01:21:20.696Z,10.38
2022-09-07T01:24:26.078Z,11.25
2022-09-07T01:27:29.572Z,10.77
2022-09-07T01:30:20.766Z,11.77
2022-09-07T01:33:28.382Z,13.13
2022-09-07T01:36:30.781Z,14.25
2022-09-07T01:39:13.457Z,13.90
2022-09-07T01:42:33.365Z,15.02
2022-09-07T01:45:18.450Z,15.00
2022-09-07T01:48:13.768Z,15.52
2022-09-07T01:51:10.203Z,17.70
2022-09-07T01:53:59.791Z,20.33
2022-09-07T01:56:47.070Z,22.17
2022-09-07T01:59:44.778Z,23.27
2022-09-07T02:02:35.840Z,23.67
2022-09-07T02:05:40.158Z,25.48
2022-09-07T02:09:00.786Z,26.95
2022-09-07T02:11:55.960Z,30.90
2022-09-07T02:14:52.852Z,29.65
2022-09-07T02:17:39.506Z,31.65
2022-09-07T02:20:35.120Z,33.95
2022-09-07T02:23:22.543Z,35.45
2022-09-07T02:26:17.798Z,37.47
2022-09-07T02:29:07.511Z,36.38
2022-09-07T02:31:51.747Z,37.38
2022-09-07T02:34:41.193Z,36.53
2022-09-07T02:37:24.437Z,36.88
2022-09-07T02:40:12.883Z,40.13
2022-09-07T02:42:55.346Z,39.33
2022-09-07T02:46:21.719Z,40.08
2022-09-07T02:49:27.178Z,40.90
2022-09-07T02:52:30.201Z,41.67
2022-09-07T02:55:37.214Z,38.73
2022-09-07T02:58:37.122Z,39.92
2022-09-07T03:01:56.292Z,38.83
2022-09-07T03:05:02.084Z,40.08
2022-09-07T03:08:08.757Z,39.70
2022-09-07T03:10:58.766Z,43.45
2022-09-07T03:13:47.749Z,41.83
2022-09-07T03:16:30.038Z,42.05
2022-09-07T03:19:19.194Z,38.60
2022-09-07T03:22:08.772Z,41.60
2022-09-07T03:24:52.564Z,43.63
2022-09-07T03:27:41.757Z,39.15
2022-09-07T03:30:24.596Z,40.92
2022-09-07T03:33:13.761Z,33.95
2022-09-07T03:36:09.507Z,32.13
2022-09-07T03:38:52.216Z,28.58
2022-09-07T03:41:41.051Z,28.30
2022-09-07T03:44:24.188Z,27.95
2022-09-07T03:47:19.749Z,27.48
2022-09-07T03:50:09.076Z,28.85
2022-09-07T03:52:51.748Z,29.05
2022-09-07T03:55:40.533Z,28.25
2022-09-07T03:58:24.110Z,26.35
2022-09-07T04:01:12.837Z,26.33
2022-09-07T04:04:02.828Z,24.70
2022-09-07T04:06:51.984Z,24.90
2022-09-07T04:09:34.322Z,25.67
2022-09-07T04:12:22.982Z,26.80
2022-09-07T04:15:05.292Z,25.83
2022-09-07T04:17:53.994Z,26.33
2022-09-07T04:20:37.060Z,26.60
2022-09-07T04:23:26.740Z,24.55
2022-09-07T04:26:16.002Z,22.80
2022-09-07T04:29:05.371Z,19.88
2022-09-07T04:31:47.730Z,19.90
2022-09-07T04:34:37.268Z,18.98
2022-09-07T04:37:19.901Z,19.95
2022-09-07T04:40:08.112Z,21.02
2022-09-07T04:42:50.741Z,20.40
2022-09-07T04:45:40.006Z,20.27
2022-09-07T04:48:35.995Z,19.35
2022-09-07T04:51:25.288Z,17.10
2022-09-07T04:54:09.754Z,17.48
2022-09-07T04:56:58.077Z,17.25
2022-09-07T04:59:40.981Z,18.05
2022-09-07T05:02:29.395Z,18.08
2022-09-07T05:05:11.770Z,17.40
2022-09-07T05:07:59.998Z,15.15
2022-09-07T05:10:41.752Z,15.18
2022-09-07T05:13:24.237Z,14.25
2022-09-07T05:16:14.950Z,13.38
2022-09-07T05:19:16.746Z,14.82
2022-09-07T05:22:06.035Z,14.65
2022-09-07T05:24:48.014Z,16.58
2022-09-07T05:27:36.753Z,18.38
2022-09-07T05:36:32.616Z,22.50
2022-09-07T05:39:21.999Z,23.98
2022-09-07T05:42:11.032Z,25.23
2022-09-07T05:45:00.204Z,25.88
2022-09-07T05:47:54.684Z,26.15
2022-09-07T05:50:37.225Z,27.00
2022-09-07T05:53:25.739Z,25.58
2022-09-07T05:56:09.274Z,21.10
2022-09-07T05:59:01.771Z,18.13
2022-09-07T06:01:44.000Z,17.40
2022-09-07T06:04:32.985Z,16.83
2022-09-07T06:07:21.946Z,16.48
2022-09-07T06:13:12.952Z,16.05
2022-09-07T06:16:02.005Z,18.60
2022-09-07T06:18:46.189Z,16.70
2022-09-07T06:21:37.996Z,17.38
2022-09-07T06:24:19.971Z,15.65
2022-09-07T06:27:08.644Z,15.85
2022-09-07T06:29:57.998Z,16.63
2022-09-07T06:32:43.689Z,14.57
2022-09-07T06:35:32.658Z,16.60
2022-09-07T06:38:15.297Z,15.88
2022-09-07T06:44:10.299Z,15.93
2022-09-07T06:49:54.836Z,13.25
2022-09-07T06:55:52.168Z,12.85
2022-09-07T06:58:42.501Z,12.27
2022-09-07T07:01:27.340Z,12.90
2022-09-07T07:04:15.992Z,12.07
2022-09-07T07:06:58.037Z,14.70
2022-09-07T07:09:46.921Z,13.97
2022-09-07T07:15:19.226Z,17.42
2022-09-07T07:18:30.933Z,18.02
2022-09-07T07:21:14.746Z,15.90
2022-09-07T07:23:57.432Z,17.77
2022-09-07T07:26:48.010Z,17.25
2022-09-07T07:29:29.966Z,13.38
2022-09-07T07:32:18.736Z,12.27
2022-09-07T07:35:01.168Z,11.88
2022-09-07T07:37:50.628Z,12.88
2022-09-07T07:40:34.178Z,16.35
2022-09-07T07:43:25.013Z,16.00
2022-09-07T07:46:14.057Z,14.25
2022-09-07T07:49:09.996Z,14.70
2022-09-07T07:55:42.847Z,16.02
2022-09-07T07:58:11.574Z,16.15
2022-09-07T08:00:56.467Z,16.70
2022-09-07T08:03:47.706Z,18.40
2022-09-07T08:06:37.706Z,18.30
2022-09-07T08:09:19.918Z,16.38
2022-09-07T08:12:09.651Z,12.80
2022-09-07T08:14:58.865Z,12.80
2022-09-07T08:17:48.239Z,11.05
2022-09-07T08:20:30.161Z,11.15
2022-09-07T08:23:18.722Z,10.50
2022-09-07T08:26:08.282Z,11.25
2022-09-07T08:28:54.845Z,11.63
2022-09-07T08:31:43.922Z,10.88
2022-09-07T08:34:26.235Z,11.32
2022-09-07T08:37:15.694Z,10.25
2022-09-07T08:40:05.008Z,11.55
2022-09-07T08:43:33.223Z,10.82
2022-09-07T08:46:45.808Z,10.38
2022-09-07T08:50:00.565Z,10.13
2022-09-07T08:53:00.983Z,10.07
2022-09-07T08:55:54.225Z,10.98
2022-09-07T08:58:52.738Z,10.45
2022-09-07T09:01:42.301Z,10.23
2022-09-07T09:08:08.104Z,10.00
2022-09-07T09:11:07.913Z,10.38
2022-09-07T09:14:00.600Z,9.60
2022-09-07T09:16:58.870Z,9.57
2022-09-07T09:20:08.684Z,11.23
2022-09-07T09:22:54.013Z,10.32
2022-09-07T09:28:36.633Z,9.95
2022-09-07T09:31:43.774Z,9.57
2022-09-07T09:34:36.027Z,9.95
2022-09-07T09:37:35.659Z,10.05
2022-09-07T09:40:40.642Z,9.52
2022-09-07T09:43:35.212Z,11.15
2022-09-07T09:46:34.624Z,9.60
2022-09-07T09:49:34.033Z,10.40
2022-09-07T09:52:45.081Z,10.60
2022-09-07T10:04:58.652Z,11.10
2022-09-07T10:08:01.963Z,10.98
2022-09-07T10:11:10.457Z,9.68
2022-09-07T10:14:05.604Z,11.00
2022-09-07T10:16:55.747Z,12.43
2022-09-07T10:19:45.724Z,12.57
2022-09-07T10:22:39.338Z,13.20
2022-09-07T10:25:54.778Z,12.10
2022-09-07T10:32:34.876Z,12.32
2022-09-07T10:36:04.735Z,12.57
2022-09-07T10:39:05.697Z,13.73
2022-09-07T10:42:11.722Z,13.50
2022-09-07T10:45:15.029Z,13.90
2022-09-07T10:48:29.000Z,13.10
2022-09-07T10:51:44.162Z,12.38
2022-09-07T10:58:03.051Z,11.98
2022-09-07T11:01:24.093Z,13.38
2022-09-07T11:04:59.042Z,11.85
2022-09-07T11:08:08.707Z,11.73
2022-09-07T11:11:16.047Z,11.43
2022-09-07T11:14:19.661Z,11.70
2022-09-07T11:17:21.041Z,11.77
2022-09-07T11:20:27.051Z,11.23
2022-09-07T11:23:23.255Z,12.10
2022-09-07T11:26:45.599Z,11.07
2022-09-07T11:30:11.890Z,11.18
2022-09-07T11:33:08.357Z,11.20
2022-09-07T11:36:20.544Z,11.50
2022-09-07T11:39:29.585Z,10.35
2022-09-07T11:42:50.943Z,10.65
2022-09-07T11:45:50.776Z,10.55
2022-09-07T11:48:58.858Z,10.93
2022-09-07T11:51:40.989Z,10.30
2022-09-07T11:55:00.605Z,12.63
2022-09-07T11:58:42.893Z,10.93
2022-09-07T12:01:41.432Z,12.60
2022-09-07T12:04:56.055Z,11.77
2022-09-07T12:07:59.698Z,13.55
2022-09-07T12:10:53.642Z,12.50
2022-09-07T12:13:59.903Z,12.95
2022-09-07T12:17:09.033Z,11.40
2022-09-07T12:20:22.629Z,11.43
2022-09-07T12:26:45.175Z,13.32
2022-09-07T12:29:32.054Z,11.90
2022-09-07T12:32:54.228Z,13.02
2022-09-07T12:35:49.056Z,11.15
2022-09-07T12:38:45.616Z,12.05
2022-09-07T12:41:39.700Z,12.70
2022-09-07T12:44:31.330Z,12.07
2022-09-07T12:47:33.713Z,12.23
2022-09-07T12:50:51.327Z,12.48
2022-09-07T12:53:52.093Z,15.63
2022-09-07T13:00:36.607Z,14.57
2022-09-07T13:03:52.983Z,16.27
2022-09-07T13:07:12.700Z,17.33
2022-09-07T13:09:59.553Z,17.23
2022-09-07T13:12:59.953Z,16.98
2022-09-07T13:16:23.897Z,18.05
2022-09-07T13:19:18.070Z,15.88
2022-09-07T13:22:00.151Z,13.75
2022-09-07T13:25:12.595Z,16.00
2022-09-07T13:28:08.688Z,15.60
2022-09-07T13:31:25.058Z,15.32
2022-09-07T13:34:47.599Z,16.52
2022-09-07T13:37:35.592Z,18.20
2022-09-07T13:40:35.045Z,15.98
2022-09-07T13:43:35.848Z,17.40
2022-09-07T13:46:54.502Z,17.65
2022-09-07T13:50:18.610Z,16.48
2022-09-07T13:53:52.873Z,18.65
2022-09-07T13:57:08.650Z,17.58
2022-09-07T14:00:21.012Z,17.60
2022-09-07T14:03:23.071Z,19.73
2022-09-07T14:06:36.967Z,18.85
2022-09-07T14:09:37.937Z,18.17
2022-09-07T14:12:33.749Z,19.73
2022-09-07T14:15:56.578Z,20.60
2022-09-07T14:19:00.358Z,18.10
2022-09-07T14:21:43.850Z,18.23
2022-09-07T14:24:46.031Z,18.85
2022-09-07T14:27:41.218Z,20.92
2022-09-07T14:30:36.043Z,21.85
2022-09-07T14:33:24.210Z,20.33
2022-09-07T14:36:41.668Z,24.23
2022-09-07T14:39:30.532Z,23.92
2022-09-07T14:42:32.112Z,24.60
2022-09-07T14:45:42.059Z,24.05
2022-09-07T14:48:34.405Z,24.80
2022-09-07T14:51:38.878Z,26.60
2022-09-07T14:54:36.724Z,25.98
2022-09-07T14:57:27.684Z,24.17
2022-09-07T15:04:32.861Z,27.48
2022-09-07T15:07:38.600Z,28.73
2022-09-07T15:11:32.877Z,29.50
2022-09-07T15:14:24.208Z,29.80
2022-09-07T15:17:42.930Z,28.63
2022-09-07T15:20:53.022Z,27.98
2022-09-07T15:23:41.684Z,29.80
2022-09-07T15:29:42.930Z,30.08
2022-09-07T15:32:32.025Z,27.98
2022-09-07T15:35:22.692Z,28.83
2022-09-07T15:41:24.180Z,32.90
2022-09-07T15:44:21.539Z,28.95
2022-09-07T15:50:28.716Z,32.10
2022-09-07T15:56:28.976Z,29.30
2022-09-07T15:59:22.046Z,32.25
2022-09-07T16:05:32.712Z,30.48
2022-09-07T16:08:25.680Z,29.73
2022-09-07T16:11:23.944Z,29.38
2022-09-07T16:14:18.632Z,31.88
2022-09-07T16:20:08.630Z,31.15
2022-09-07T16:23:15.210Z,31.77
2022-09-07T16:26:11.095Z,31.90
2022-09-07T16:29:01.623Z,32.80
2022-09-07T16:34:56.682Z,32.88
2022-09-07T16:41:01.728Z,31.75
2022-09-07T16:43:52.668Z,31.25
2022-09-07T16:46:45.680Z,32.63
2022-09-07T16:49:33.448Z,33.95
2022-09-07T16:52:21.703Z,34.58
2022-09-07T16:55:14.751Z,34.20
2022-09-07T17:01:24.794Z,32.20
2022-09-07T17:04:11.472Z,31.13
2022-09-07T17:07:07.751Z,31.40
2022-09-07T17:09:54.099Z,31.85
2022-09-07T17:12:45.686Z,30.58
2022-09-07T17:15:35.812Z,32.17
2022-09-07T17:18:18.959Z,30.85
2022-09-07T17:21:12.282Z,32.40
2022-09-07T17:23:56.945Z,32.20
2022-09-07T17:26:50.105Z,30.80
2022-09-07T17:29:45.003Z,31.90
2022-09-07T17:32:27.961Z,33.42
2022-09-07T17:35:10.980Z,32.30
2022-09-07T17:38:01.406Z,31.90
2022-09-07T17:40:54.871Z,30.48
2022-09-07T17:43:53.589Z,31.98
2022-09-07T17:46:47.072Z,30.52
2022-09-07T17:49:30.476Z,31.63
2022-09-07T17:52:19.045Z,32.75
2022-09-07T17:55:03.078Z,32.30
2022-09-07T17:57:52.647Z,30.45
2022-09-07T18:00:36.886Z,29.77
2022-09-07T18:03:35.678Z,29.88
2022-09-07T18:06:26.868Z,23.48
2022-09-07T18:09:12.610Z,29.45
2022-09-07T18:12:01.843Z,30.70
2022-09-07T18:14:52.609Z,30.23
2022-09-07T18:17:42.417Z,30.38
2022-09-07T18:20:24.671Z,30.75
2022-09-07T18:23:08.851Z,31.70
2022-09-07T18:25:59.698Z,32.03
2022-09-07T18:29:10.454Z,33.38
2022-09-07T18:32:01.136Z,31.65
2022-09-07T18:34:50.804Z,32.22
2022-09-07T18:37:33.069Z,33.78
2022-09-07T18:40:23.926Z,33.78
2022-09-07T18:43:13.722Z,33.92
2022-09-07T18:46:09.480Z,33.58
2022-09-07T18:48:54.045Z,34.30
2022-09-07T18:54:39.995Z,35.70
2022-09-07T18:57:23.272Z,36.78
2022-09-07T19:00:16.165Z,35.38
2022-09-07T19:02:59.727Z,34.45
2022-09-07T19:05:50.354Z,35.70
2022-09-07T19:08:37.957Z,34.17
2022-09-07T19:11:32.954Z,33.75
2022-09-07T19:14:23.703Z,35.30
2022-09-07T19:17:06.092Z,37.15
2022-09-07T19:19:55.985Z,36.53
2022-09-07T19:22:38.432Z,35.53
2022-09-07T19:25:26.768Z,35.53
2022-09-07T19:28:15.495Z,34.05
2022-09-07T19:30:58.009Z,34.50
2022-09-07T19:33:40.255Z,35.10
2022-09-07T19:36:28.609Z,34.90
2022-09-07T19:39:12.263Z,35.53
2022-09-07T19:42:01.043Z,33.45
2022-09-07T19:44:50.324Z,34.92
2022-09-07T19:47:32.964Z,33.85
2022-09-07T19:50:22.005Z,33.55
2022-09-07T19:53:04.459Z,33.28
2022-09-07T19:55:52.812Z,35.53
2022-09-07T19:58:34.967Z,32.85
2022-09-07T20:01:27.952Z,35.90
2022-09-07T20:04:20.685Z,34.45
2022-09-07T20:07:15.865Z,35.78
2022-09-07T20:10:04.701Z,34.75
2022-09-07T20:12:47.336Z,34.53
2022-09-07T20:15:36.596Z,35.10
2022-09-07T20:18:24.618Z,35.83
2022-09-07T20:21:15.706Z,36.13
2022-09-07T20:23:59.057Z,35.63
2022-09-07T20:26:47.657Z,35.60
2022-09-07T20:29:32.713Z,35.70
2022-09-07T20:32:21.676Z,34.92
2022-09-07T20:35:04.317Z,36.90
2022-09-07T20:37:52.663Z,34.97
2022-09-07T20:40:34.978Z,35.08
2022-09-07T20:43:23.661Z,36.55
2022-09-07T20:46:10.486Z,34.33
2022-09-07T20:48:58.892Z,35.38
2022-09-07T20:51:41.054Z,34.47
2022-09-07T20:54:31.336Z,35.75
2022-09-07T20:57:14.031Z,37.17
2022-09-07T21:00:02.565Z,37.15
2022-09-07T21:02:44.002Z,35.67
2022-09-07T21:05:32.954Z,34.70
2022-09-07T21:08:28.597Z,35.47
2022-09-07T21:11:29.979Z,37.20
2022-09-07T21:14:15.352Z,35.80
2022-09-07T21:17:03.870Z,36.47
2022-09-07T21:19:47.240Z,36.70
2022-09-07T21:22:39.824Z,36.28
2022-09-07T21:25:21.969Z,35.97
2022-09-07T21:28:10.720Z,37.40
2022-09-07T21:31:00.245Z,36.30
2022-09-07T21:33:48.676Z,37.72
2022-09-07T21:36:35.272Z,37.45
2022-09-07T21:39:26.224Z,38.42
2022-09-07T21:42:14.853Z,38.45
2022-09-07T21:45:03.690Z,37.55
2022-09-07T21:47:47.303Z,39.53
2022-09-07T21:50:35.674Z,39.72
2022-09-07T21:53:20.093Z,38.20
2022-09-07T21:56:13.721Z,38.33
2022-09-07T21:58:56.338Z,38.97
2022-09-07T22:05:46.994Z,39.10
2022-09-07T22:08:35.674Z,39.35
2022-09-07T22:11:27.823Z,40.70
2022-09-07T22:14:18.930Z,40.10
2022-09-07T22:17:01.316Z,40.03
2022-09-07T22:19:50.290Z,39.20
2022-09-07T22:26:54.625Z,41.83
2022-09-07T22:29:37.028Z,41.65
2022-09-07T22:32:25.701Z,42.22
2022-09-07T22:35:07.933Z,43.13
2022-09-07T22:37:56.609Z,42.00
2022-09-07T22:40:39.185Z,42.28
2022-09-07T22:43:27.877Z,42.55
2022-09-07T22:46:10.054Z,44.88
2022-09-07T22:48:58.658Z,42.95
2022-09-07T22:51:48.679Z,44.55
2022-09-07T22:54:30.915Z,44.75
2022-09-07T22:57:19.910Z,46.00
2022-09-07T23:00:02.126Z,44.78
2022-09-07T23:02:50.670Z,43.53
2022-09-07T23:05:38.263Z,45.80
2022-09-07T23:08:33.910Z,45.97
2022-09-07T23:11:28.936Z,44.50
2022-09-07T23:14:22.952Z,45.20
2022-09-07T23:17:11.681Z,46.22
2022-09-07T23:20:00.714Z,45.72
2022-09-07T23:22:43.409Z,45.08
2022-09-07T23:25:31.696Z,44.50
2022-09-07T23:28:14.929Z,46.03
2022-09-07T23:31:03.849Z,44.58
2022-09-07T23:33:52.903Z,44.15
2022-09-07T23:36:35.368Z,44.85
2022-09-07T23:39:23.832Z,45.03
2022-09-07T23:42:12.911Z,44.55
2022-09-07T23:44:54.952Z,43.95
2022-09-07T23:47:43.661Z,44.92
2022-09-07T23:50:25.976Z,44.35
2022-09-07T23:53:14.916Z,46.97
2022-09-07T23:55:59.246Z,46.25
2022-09-07T23:58:47.961Z,45.33
